Terminal Aerodrome Forecast
Issued by NWS

Current Version | Previous Version | Text Only | Print | Product List | Glossary On
Versions: 1 2 3 4 5 6 7 8 9 10 11 12 13 14 15 16
971
FTUS46 KLOX 271736
TAFSBA
TAF
KSBA 271736Z 2718/2818 26007KT P6SM SCT035 WS015/34030KT
     FM272000 27015G20KT P6SM SKC
     FM272300 30020G30KT P6SM SKC
     FM280300 33015KT P6SM SKC WS010/34030KT
     FM281100 33007KT P6SM SKC=

USA.gov is the U.S. government's official web portal to all federal, state and local government web resources and services.